Time;durP1;ratioP1;P1;durP2;ratioP2;P2;SDS_P1;SDS_P2;PMS_P1;PMS_P2;Temp;Humidity;BMP_temperature;BMP_pressure;BME280_temperature;BME280_humidity;BME280_pressure;Samples;Min_cycle;Max_cycle;Signal;HPM_P1;HPM_P2
2022/07/23 00:00:19;;;;;;;8.40;5.10;;;;;;;18.55;74.44;101004.63;5033018;28;20049;-57
2022/07/23 00:02:47;;;;;;;9.23;5.65;;;;;;;18.52;75.61;100998.72;5038903;28;20057;-58
2022/07/23 00:05:14;;;;;;;7.88;5.18;;;;;;;18.50;75.29;100990.81;5032051;28;20412;-59
2022/07/23 00:07:41;;;;;;;8.00;4.65;;;;;;;18.50;75.15;100993.50;5041106;28;20079;-59
2022/07/23 00:10:08;;;;;;;8.55;5.07;;;;;;;18.48;75.24;100984.78;5042117;28;20053;-55
2022/07/23 00:12:36;;;;;;;7.95;5.25;;;;;;;18.45;74.96;100971.72;5043382;28;20056;-56
2022/07/23 00:15:15;;;;;;;12.63;5.30;;;;;;;18.42;75.15;100975.50;5030252;28;20053;-58
2022/07/23 00:17:42;;;;;;;10.15;5.28;;;;;;;18.38;74.77;100981.25;5034792;28;20065;-58
2022/07/23 00:20:10;;;;;;;10.57;5.40;;;;;;;18.34;74.53;100974.50;5035978;28;20059;-58
2022/07/23 00:22:52;;;;;;;5.60;4.70;;;;;;;18.32;74.60;100981.75;5038635;28;20132;-56
2022/07/23 00:25:21;;;;;;;9.80;4.80;;;;;;;18.32;74.30;100977.25;5031626;28;20056;-58
2022/07/23 00:27:58;;;;;;;7.28;5.15;;;;;;;18.30;74.41;100979.22;5038714;28;20572;-59
2022/07/23 00:30:29;;;;;;;14.18;5.78;;;;;;;18.26;74.17;100969.81;5028343;28;20044;-59
2022/07/23 00:32:58;;;;;;;6.53;4.30;;;;;;;18.25;73.91;100962.78;5040354;28;20060;-61
2022/07/23 00:35:27;;;;;;;7.22;5.07;;;;;;;18.23;74.10;100962.91;5023754;28;20057;-61
2022/07/23 00:37:56;;;;;;;7.47;5.28;;;;;;;18.22;73.83;100963.03;5050861;28;20041;-57
2022/07/23 00:40:23;;;;;;;7.63;5.28;;;;;;;18.21;73.88;100964.88;5030655;28;20053;-60
2022/07/23 00:42:51;;;;;;;13.02;6.07;;;;;;;18.19;73.89;100961.50;5044252;28;20092;-58
2022/07/23 00:45:18;;;;;;;9.88;5.50;;;;;;;18.12;74.16;100963.00;5037395;28;20052;-56
2022/07/23 00:47:46;;;;;;;8.00;5.03;;;;;;;18.10;74.10;100975.63;5039523;28;20044;-57
2022/07/23 00:50:13;;;;;;;7.53;5.18;;;;;;;18.08;74.33;100980.22;5033361;28;20059;-57
2022/07/23 00:52:41;;;;;;;10.13;5.35;;;;;;;18.03;74.32;100971.78;5034409;28;20061;-59
2022/07/23 00:55:09;;;;;;;8.13;5.05;;;;;;;17.99;74.94;100973.00;5041147;28;20795;-54
2022/07/23 00:57:37;;;;;;;7.47;5.38;;;;;;;17.96;74.75;100966.09;5038949;28;20060;-59
2022/07/23 01:00:10;;;;;;;7.43;5.18;;;;;;;17.94;74.76;100961.88;5034538;28;20053;-61
2022/07/23 01:02:38;;;;;;;9.10;5.95;;;;;;;17.92;75.29;100969.16;5034025;28;20052;-60
2022/07/23 01:05:06;;;;;;;11.15;6.15;;;;;;;17.86;75.68;100959.88;5033314;28;20064;-58
2022/07/23 01:07:34;;;;;;;8.70;5.10;;;;;;;17.84;76.04;100975.16;5047952;28;20053;-56
2022/07/23 01:10:01;;;;;;;7.20;4.65;;;;;;;17.80;75.99;100970.22;5044535;28;20061;-56
2022/07/23 01:12:29;;;;;;;7.53;4.97;;;;;;;17.78;75.78;100972.97;5043982;28;20053;-58
2022/07/23 01:14:58;;;;;;;7.20;4.75;;;;;;;17.77;75.97;100978.44;5034232;28;20045;-57
2022/07/23 01:17:25;;;;;;;7.43;5.43;;;;;;;17.75;76.04;100977.72;5032303;28;20362;-56
2022/07/23 01:19:53;;;;;;;8.63;5.32;;;;;;;17.74;75.97;100976.03;5023375;28;20061;-57
2022/07/23 01:22:20;;;;;;;10.40;4.97;;;;;;;17.71;75.76;100967.28;5038712;28;20053;-58
2022/07/23 01:24:47;;;;;;;9.65;5.55;;;;;;;17.68;76.05;100959.56;5036269;28;20067;-58
2022/07/23 01:27:14;;;;;;;10.07;6.38;;;;;;;17.66;77.10;100958.00;5046121;28;20049;-57
2022/07/23 01:29:42;;;;;;;7.30;5.68;;;;;;;17.64;77.42;100952.78;5034834;28;20077;-57
2022/07/23 01:32:09;;;;;;;9.10;5.63;;;;;;;17.61;77.90;100944.25;5033090;28;20401;-55
2022/07/23 01:34:36;;;;;;;7.43;5.60;;;;;;;17.59;77.65;100941.69;5034077;28;20049;-58
2022/07/23 01:37:03;;;;;;;8.13;6.10;;;;;;;17.59;77.40;100940.84;5037185;28;20057;-58
2022/07/23 01:39:30;;;;;;;8.48;5.05;;;;;;;17.57;77.27;100940.97;5034589;28;20502;-61
2022/07/23 01:41:59;;;;;;;10.73;5.35;;;;;;;17.57;77.84;100945.47;5032683;28;20080;-59
2022/07/23 01:44:27;;;;;;;10.38;5.47;;;;;;;17.54;77.46;100948.38;5038699;28;20052;-56
2022/07/23 01:46:56;;;;;;;11.30;5.93;;;;;;;17.51;77.08;100945.97;5027584;28;20050;-59
2022/07/23 01:49:23;;;;;;;7.80;5.75;;;;;;;17.50;77.36;100936.28;5024643;28;20525;-56
2022/07/23 01:52:00;;;;;;;8.27;5.13;;;;;;;17.49;77.92;100938.09;5034047;28;20061;-60
2022/07/23 01:54:29;;;;;;;7.25;5.15;;;;;;;17.49;77.86;100942.59;5025498;28;20057;-59
2022/07/23 01:56:56;;;;;;;10.80;5.38;;;;;;;17.50;77.57;100941.63;5036136;28;20049;-60
2022/07/23 01:59:24;;;;;;;9.90;5.53;;;;;;;17.47;78.84;100937.38;5026194;28;20128;-56
2022/07/23 02:01:52;;;;;;;8.85;5.88;;;;;;;17.48;78.37;100939.09;5033664;28;20366;-59
2022/07/23 02:04:23;;;;;;;12.90;6.00;;;;;;;17.48;78.15;100928.44;5034952;28;20517;-57
2022/07/23 02:06:51;;;;;;;8.45;5.93;;;;;;;17.49;78.37;100937.28;5022286;28;20057;-60
2022/07/23 02:09:18;;;;;;;8.70;5.70;;;;;;;17.47;78.57;100932.06;5043575;28;20065;-59
2022/07/23 02:11:45;;;;;;;7.75;5.25;;;;;;;17.46;78.18;100935.69;5035705;28;20053;-56
2022/07/23 02:14:13;;;;;;;11.93;5.97;;;;;;;17.48;78.07;100939.09;5033554;28;20071;-57
2022/07/23 02:16:40;;;;;;;9.80;5.50;;;;;;;17.45;77.79;100926.88;5034549;28;20056;-53
2022/07/23 02:19:07;;;;;;;10.82;5.57;;;;;;;17.43;77.77;100930.66;5032763;28;20067;-57
2022/07/23 02:21:35;;;;;;;10.48;5.25;;;;;;;17.43;77.66;100933.31;5036047;28;20045;-58
2022/07/23 02:24:03;;;;;;;8.10;4.72;;;;;;;17.43;77.64;100928.81;5039243;28;20537;-59
2022/07/23 02:26:34;;;;;;;7.15;5.40;;;;;;;17.41;77.80;100921.94;5034445;28;20060;-58
2022/07/23 02:29:02;;;;;;;8.20;5.30;;;;;;;17.42;77.44;100924.44;5038758;28;20044;-61
2022/07/23 02:31:31;;;;;;;7.88;5.18;;;;;;;17.43;77.43;100930.66;5040481;28;20045;-55
2022/07/23 02:33:58;;;;;;;9.30;4.95;;;;;;;17.43;77.61;100928.81;5040960;28;20803;-58
2022/07/23 02:36:26;;;;;;;6.65;5.05;;;;;;;17.42;77.83;100920.94;5042802;28;20045;-58
2022/07/23 02:38:53;;;;;;;8.77;5.10;;;;;;;17.35;78.71;100923.28;5042918;28;20795;-60
2022/07/23 02:41:20;;;;;;;6.35;4.70;;;;;;;17.31;78.30;100931.66;5040276;28;20052;-57
2022/07/23 02:43:47;;;;;;;6.72;5.03;;;;;;;17.31;78.14;100932.50;5053094;28;20391;-56
2022/07/23 02:46:15;;;;;;;6.63;4.82;;;;;;;17.31;78.23;100934.31;5031194;28;20598;-58
2022/07/23 02:48:42;;;;;;;7.45;5.15;;;;;;;17.30;78.17;100941.44;5038355;28;20076;-55
2022/07/23 02:51:09;;;;;;;7.97;4.75;;;;;;;17.29;78.06;100952.19;5042906;28;20253;-57
2022/07/23 02:53:41;;;;;;;7.80;5.35;;;;;;;17.26;78.30;100948.00;5042573;28;20048;-58
2022/07/23 02:56:08;;;;;;;7.10;4.55;;;;;;;17.24;78.86;100938.44;5037614;28;20062;-57
2022/07/23 02:58:36;;;;;;;14.20;6.72;;;;;;;17.13;79.83;100939.31;5044680;28;20045;-55
2022/07/23 03:01:03;;;;;;;12.00;5.93;;;;;;;17.11;79.09;100934.13;5035215;28;20049;-55
2022/07/23 03:03:30;;;;;;;11.70;5.18;;;;;;;17.12;79.29;100934.97;5046911;28;20041;-58
2022/07/23 03:05:57;;;;;;;7.65;4.45;;;;;;;17.12;79.08;100941.13;5039855;28;20053;-59
2022/07/23 03:08:24;;;;;;;6.43;4.35;;;;;;;17.12;78.97;100943.78;5027993;28;20046;-56
2022/07/23 03:10:52;;;;;;;7.97;5.63;;;;;;;17.11;79.15;100933.25;5043698;28;20071;-56
2022/07/23 03:13:23;;;;;;;7.25;5.05;;;;;;;17.07;79.49;100927.38;5041739;28;20042;-57
2022/07/23 03:15:50;;;;;;;10.32;5.38;;;;;;;17.07;79.80;100926.53;5044085;28;20049;-58
2022/07/23 03:18:17;;;;;;;10.27;4.93;;;;;;;17.04;79.86;100930.28;5034362;28;20046;-59
2022/07/23 03:20:44;;;;;;;11.05;5.80;;;;;;;17.00;80.14;100944.78;5036724;28;20493;-56
2022/07/23 03:23:11;;;;;;;9.13;5.25;;;;;;;16.95;80.88;100941.66;5044061;28;20056;-55
2022/07/23 03:25:39;;;;;;;8.95;4.90;;;;;;;16.91;80.67;100941.06;5040218;28;20064;-56
2022/07/23 03:28:06;;;;;;;6.68;4.68;;;;;;;16.92;80.82;100939.22;5043865;28;20638;-55
2022/07/23 03:30:33;;;;;;;11.55;5.40;;;;;;;16.88;81.12;100935.97;5045090;28;20494;-54
2022/07/23 03:33:00;;;;;;;9.27;5.25;;;;;;;16.83;80.89;100939.97;5040090;28;20049;-57
2022/07/23 03:35:27;;;;;;;9.32;4.85;;;;;;;16.80;80.88;100945.56;5039948;28;20049;-59
2022/07/23 03:37:54;;;;;;;12.65;5.00;;;;;;;16.78;80.94;100948.31;5045778;28;20044;-57
2022/07/23 03:40:22;;;;;;;8.18;5.05;;;;;;;16.75;80.95;100961.00;5039991;28;20071;-58
2022/07/23 03:42:49;;;;;;;8.68;4.90;;;;;;;16.69;80.60;100962.31;5033404;28;20077;-55
2022/07/23 03:45:16;;;;;;;9.65;4.35;;;;;;;16.68;80.56;100965.94;5037724;28;20062;-57
2022/07/23 03:47:44;;;;;;;11.00;4.70;;;;;;;16.67;80.48;100967.75;5030546;28;20050;-59
2022/07/23 03:50:11;;;;;;;10.48;4.72;;;;;;;16.67;80.26;100977.56;5039713;28;20060;-56
2022/07/23 03:52:38;;;;;;;8.43;4.25;;;;;;;16.67;80.10;100977.56;5038984;28;20513;-59
2022/07/23 03:55:06;;;;;;;12.23;4.78;;;;;;;16.65;80.07;100974.16;5037797;28;20057;-59
2022/07/23 03:57:33;;;;;;;6.82;4.18;;;;;;;16.60;80.03;100979.81;5034787;28;20409;-60
2022/07/23 04:00:00;;;;;;;9.63;3.95;;;;;;;16.59;80.30;100978.16;5038679;28;20068;-56
2022/07/23 04:02:28;;;;;;;7.57;4.45;;;;;;;16.61;80.06;100983.34;5035999;28;20049;-56
2022/07/23 04:04:55;;;;;;;7.65;4.00;;;;;;;16.59;80.04;100979.97;5035060;28;20061;-56
2022/07/23 04:07:22;;;;;;;4.72;3.22;;;;;;;16.62;79.73;100974.41;5038131;28;20498;-57
2022/07/23 04:09:49;;;;;;;5.60;3.53;;;;;;;16.61;79.66;100976.19;5038279;28;20065;-56
2022/07/23 04:12:16;;;;;;;8.23;4.10;;;;;;;16.60;79.09;100974.50;5036615;28;20057;-56
2022/07/23 04:14:44;;;;;;;7.43;3.53;;;;;;;16.59;79.34;100967.50;5036984;28;20049;-58
2022/07/23 04:17:12;;;;;;;8.30;3.63;;;;;;;16.60;78.86;100958.56;5038610;28;20061;-57
2022/07/23 04:19:41;;;;;;;7.25;3.53;;;;;;;16.61;78.85;100957.59;5040147;28;20548;-58
2022/07/23 04:22:08;;;;;;;8.90;3.58;;;;;;;16.63;79.31;100946.84;5036941;28;20359;-55
2022/07/23 04:24:35;;;;;;;8.43;3.08;;;;;;;16.61;79.23;100960.25;5038671;28;20045;-57
2022/07/23 04:27:02;;;;;;;10.23;3.60;;;;;;;16.62;79.43;100967.28;5042137;28;20690;-60
2022/07/23 04:29:30;;;;;;;7.13;3.60;;;;;;;16.56;78.84;100965.09;5035360;28;20050;-58
2022/07/23 04:31:57;;;;;;;8.23;3.47;;;;;;;16.58;79.44;100959.66;5035539;28;20065;-58
2022/07/23 04:34:26;;;;;;;10.55;3.28;;;;;;;16.59;79.06;100970.16;5034243;28;20068;-55
2022/07/23 04:36:53;;;;;;;9.80;3.85;;;;;;;16.57;78.48;100942.00;5031105;28;20052;-55
2022/07/23 04:39:24;;;;;;;7.13;2.80;;;;;;;16.60;78.30;100942.63;5036932;28;20132;-56
2022/07/23 04:41:51;;;;;;;6.10;3.25;;;;;;;16.61;77.87;100964.72;5035922;28;20057;-58
2022/07/23 04:44:18;;;;;;;8.40;2.90;;;;;;;16.62;77.95;100969.94;5041164;28;20048;-59
2022/07/23 04:46:45;;;;;;;12.73;3.92;;;;;;;16.55;79.38;100995.28;5036525;28;20152;-59
2022/07/23 04:49:13;;;;;;;12.93;3.72;;;;;;;16.49;81.39;101014.38;5037139;28;20524;-57
2022/07/23 04:51:40;;;;;;;12.27;4.47;;;;;;;16.48;81.45;101004.72;5033989;28;20069;-55
2022/07/23 04:54:07;;;;;;;9.52;3.45;;;;;;;16.49;82.50;101005.56;5032293;28;20501;-57
2022/07/23 04:56:35;;;;;;;7.78;3.80;;;;;;;16.48;82.87;101012.72;5034389;28;20067;-59
2022/07/23 04:59:02;;;;;;;11.48;3.40;;;;;;;16.49;83.73;101009.06;5041287;28;20057;-56
2022/07/23 05:01:30;;;;;;;7.28;3.03;;;;;;;16.53;84.48;101012.34;5036117;28;20536;-58
2022/07/23 05:03:57;;;;;;;8.82;3.35;;;;;;;16.50;84.10;101015.22;5036116;28;20049;-54
2022/07/23 05:06:25;;;;;;;10.02;2.95;;;;;;;16.50;84.44;101008.09;5039191;28;20147;-57
2022/07/23 05:08:52;;;;;;;13.13;3.17;;;;;;;16.54;85.92;100984.78;5050191;28;20163;-56
2022/07/23 05:11:19;;;;;;;4.82;2.60;;;;;;;16.50;85.80;100970.06;5045084;28;20065;-53
2022/07/23 05:13:53;;;;;;;8.30;2.97;;;;;;;16.41;86.61;100979.59;5051125;28;20053;-59
2022/07/23 05:16:20;;;;;;;9.10;2.85;;;;;;;16.36;87.12;100992.38;5038196;28;20057;-59
2022/07/23 05:18:47;;;;;;;7.85;2.88;;;;;;;16.38;86.46;100979.81;5034523;28;20049;-58
2022/07/23 05:21:14;;;;;;;4.22;2.30;;;;;;;16.38;86.07;100977.16;5045571;28;20567;-58
2022/07/23 05:23:42;;;;;;;7.05;2.72;;;;;;;16.39;87.19;100977.06;5033983;28;20061;-58
2022/07/23 05:26:09;;;;;;;7.35;2.50;;;;;;;16.37;86.96;100978.13;5041224;28;20049;-56
2022/07/23 05:28:36;;;;;;;4.30;2.40;;;;;;;16.35;86.51;100972.09;5036831;28;20041;-59
2022/07/23 05:31:03;;;;;;;9.80;3.28;;;;;;;16.35;87.43;100980.06;5037912;28;20064;-58
2022/07/23 05:33:31;;;;;;;7.80;2.22;;;;;;;16.32;87.43;100975.00;5043367;23;20049;-86
2022/07/23 05:36:03;;;;;;;7.25;2.17;;;;;;;16.32;87.15;100977.66;5004301;28;20105;-86
2022/07/23 05:38:31;;;;;;;9.13;2.50;;;;;;;16.31;86.88;100973.31;5010666;28;20045;-86
2022/07/23 05:41:02;;;;;;;10.05;3.08;;;;;;;16.28;87.21;100978.84;5039470;28;20034;-86
2022/07/23 05:43:29;;;;;;;6.82;2.58;;;;;;;16.25;88.02;100984.38;5024767;28;20041;-86
2022/07/23 05:45:57;;;;;;;8.40;2.78;;;;;;;16.24;87.98;100986.19;5039996;28;20049;-86
2022/07/23 05:48:25;;;;;;;7.03;2.83;;;;;;;16.22;87.93;100979.31;5032809;28;20053;-83
2022/07/23 05:50:56;;;;;;;9.15;3.53;;;;;;;16.27;87.89;100980.66;5019144;28;20069;-84
2022/07/23 05:53:23;;;;;;;6.13;2.33;;;;;;;16.30;87.40;100991.06;5045807;28;20045;-84
2022/07/23 05:55:50;;;;;;;6.75;2.50;;;;;;;16.32;87.93;100993.59;5022824;28;20041;-85
2022/07/23 05:58:19;;;;;;;7.57;2.85;;;;;;;16.26;88.41;101010.84;5017311;28;20053;-85
2022/07/23 06:00:46;;;;;;;8.90;3.50;;;;;;;16.20;89.41;101024.59;5033436;28;20220;-85
2022/07/23 06:03:16;;;;;;;5.07;2.65;;;;;;;16.11;89.73;101018.16;5040030;28;20663;-85
2022/07/23 06:05:44;;;;;;;11.45;3.55;;;;;;;16.05;90.07;101018.63;5021651;28;20060;-85
2022/07/23 06:08:11;;;;;;;6.50;2.55;;;;;;;16.05;90.19;101017.78;5035273;28;20263;-85
2022/07/23 06:10:38;;;;;;;5.05;2.50;;;;;;;16.03;90.07;101001.09;5040212;28;20079;-85
2022/07/23 06:13:10;;;;;;;6.05;3.13;;;;;;;16.04;90.34;100998.34;5027199;28;20025;-83
2022/07/23 06:15:37;;;;;;;7.80;3.60;;;;;;;16.03;90.63;100975.44;5034553;28;20536;-82
2022/07/23 06:18:04;;;;;;;6.57;3.13;;;;;;;16.02;91.59;100973.72;5061580;28;20059;-83
2022/07/23 06:20:32;;;;;;;9.70;2.58;;;;;;;16.03;90.87;100978.09;5022091;28;20141;-83
2022/07/23 06:23:00;;;;;;;6.97;3.08;;;;;;;16.09;90.97;100980.25;5036373;28;20045;-84
2022/07/23 06:25:27;;;;;;;11.93;3.47;;;;;;;16.14;91.19;100983.41;5032814;28;20044;-82
2022/07/23 06:28:02;;;;;;;5.95;2.75;;;;;;;16.21;90.89;100973.16;5031671;28;20065;-85
2022/07/23 06:30:41;;;;;;;11.68;2.90;;;;;;;16.25;90.43;100982.56;5016298;28;20036;-85
2022/07/23 06:33:11;;;;;;;9.80;2.83;;;;;;;16.29;91.04;100999.97;5008416;28;20224;-87
2022/07/23 06:35:44;;;;;;;9.90;2.63;;;;;;;16.33;91.53;101006.75;5031244;28;20485;-85
2022/07/23 06:38:14;;;;;;;6.93;2.80;;;;;;;16.36;91.87;100987.91;5028870;28;20156;-85
2022/07/23 06:40:44;;;;;;;7.80;2.70;;;;;;;16.41;92.15;100976.94;5039426;28;20060;-85
2022/07/23 06:43:11;;;;;;;6.72;3.22;;;;;;;16.41;91.96;100951.19;5046327;28;20056;-83
2022/07/23 06:45:39;;;;;;;10.38;3.63;;;;;;;16.42;91.41;100944.06;5006446;28;20156;-84
2022/07/23 06:48:09;;;;;;;8.93;3.22;;;;;;;16.43;91.62;100951.06;5039892;28;20055;-85
2022/07/23 06:50:36;;;;;;;7.95;3.47;;;;;;;16.45;91.58;100957.13;5041566;28;20051;-84
2022/07/23 06:53:03;;;;;;;7.28;3.08;;;;;;;16.50;91.51;100941.66;5024782;28;20056;-85
2022/07/23 06:55:38;;;;;;;7.13;2.88;;;;;;;16.62;91.25;100945.19;5033730;28;20111;-87
2022/07/23 06:58:06;;;;;;;8.98;3.55;;;;;;;16.71;91.64;100949.75;5009295;28;20389;-84
2022/07/23 07:00:33;;;;;;;6.35;2.92;;;;;;;16.78;91.97;100952.78;5044547;28;20486;-86
2022/07/23 07:03:00;;;;;;;7.88;3.05;;;;;;;16.78;91.42;100956.28;5063969;28;20061;-84
2022/07/23 07:05:28;;;;;;;3.53;2.40;;;;;;;16.77;91.28;100959.94;5033269;28;20049;-84
2022/07/23 07:07:55;;;;;;;4.28;2.92;;;;;;;16.78;91.17;100958.09;5041397;28;20052;-84
2022/07/23 07:10:23;;;;;;;11.13;4.00;;;;;;;16.80;92.79;100953.53;5054976;28;20045;-82
2022/07/23 07:12:51;;;;;;;7.28;3.15;;;;;;;16.82;92.29;100956.91;5063316;28;20064;-83
2022/07/23 07:15:18;;;;;;;7.30;2.90;;;;;;;16.91;92.08;100969.47;5056264;28;20319;-83
2022/07/23 07:17:47;;;;;;;9.52;3.75;;;;;;;17.01;91.32;100994.34;5022566;28;20085;-83
2022/07/23 07:20:14;;;;;;;6.65;3.47;;;;;;;17.08;91.10;101003.53;5056022;28;20043;-84
2022/07/23 07:22:41;;;;;;;12.77;4.05;;;;;;;17.21;90.17;101000.75;5060673;28;20053;-83
2022/07/23 07:25:09;;;;;;;10.18;3.22;;;;;;;17.31;89.24;101007.00;5015477;28;20101;-85
2022/07/23 07:27:36;;;;;;;6.75;2.78;;;;;;;17.37;88.82;101000.31;5044445;28;20049;-83
2022/07/23 07:30:04;;;;;;;9.88;3.10;;;;;;;17.52;88.70;101011.56;5026422;28;20088;-86
2022/07/23 07:32:36;;;;;;;9.05;3.78;;;;;;;17.61;88.08;101014.31;5039329;28;20079;-86
2022/07/23 07:35:24;;;;;;;8.32;3.58;;;;;;;17.67;87.42;100999.63;5035766;28;20482;-86
2022/07/23 07:37:52;;;;;;;9.57;3.38;;;;;;;17.77;87.23;100997.06;5012556;28;20072;-86
2022/07/23 07:40:21;;;;;;;6.93;3.13;;;;;;;17.90;86.71;100992.41;5022492;28;20049;-84
2022/07/23 07:42:56;;;;;;;5.95;2.88;;;;;;;18.02;86.48;101001.22;5016118;28;20531;-86
2022/07/23 07:45:24;;;;;;;9.23;3.95;;;;;;;18.07;85.20;100994.50;5023739;28;20046;-85
2022/07/23 07:47:52;;;;;;;9.13;3.30;;;;;;;18.16;85.17;100990.22;5023871;28;20045;-85
2022/07/23 07:50:25;;;;;;;6.93;3.13;;;;;;;18.19;85.54;100988.16;5041528;28;20069;-87
2022/07/23 07:52:53;;;;;;;8.35;3.63;;;;;;;18.25;85.41;100976.13;5043464;28;20053;-86
2022/07/23 07:55:25;;;;;;;6.95;3.78;;;;;;;18.23;86.29;100973.56;5022545;28;20056;-86
2022/07/23 07:57:52;;;;;;;6.57;3.40;;;;;;;18.33;86.15;100968.31;5010972;28;20045;-86
2022/07/23 08:00:19;;;;;;;7.25;3.63;;;;;;;18.41;86.12;100964.97;5038626;28;20049;-85
2022/07/23 08:02:50;;;;;;;7.47;3.25;;;;;;;18.58;85.69;100967.00;5044997;28;20235;-87
2022/07/23 08:05:26;;;;;;;7.97;3.30;;;;;;;18.65;84.63;100965.50;5019138;28;20076;-85
2022/07/23 08:07:56;;;;;;;6.65;3.58;;;;;;;18.67;84.07;100952.88;5037826;28;20077;-88
2022/07/23 08:10:28;;;;;;;7.63;4.03;;;;;;;18.64;84.23;100965.63;5028487;28;20037;-86
2022/07/23 08:12:58;;;;;;;7.15;3.58;;;;;;;18.64;84.46;100977.16;5010039;28;20052;-86
2022/07/23 08:15:29;;;;;;;6.18;4.10;;;;;;;18.76;84.38;100969.09;5010635;28;20285;-88
2022/07/23 08:17:57;;;;;;;9.43;3.90;;;;;;;18.98;82.51;100972.38;5042414;28;20046;-85
2022/07/23 08:20:25;;;;;;;11.23;4.10;;;;;;;19.25;82.41;100965.56;5021391;28;20056;-87
2022/07/23 08:22:59;;;;;;;8.77;3.38;;;;;;;19.52;81.98;100969.38;5024272;28;20046;-87
2022/07/23 08:25:32;;;;;;;7.05;2.67;;;;;;;19.79;80.95;100963.38;5027200;28;20037;-85
2022/07/23 08:28:05;;;;;;;6.00;3.13;;;;;;;20.01;78.83;100971.09;5032442;28;20041;-84
2022/07/23 08:30:33;;;;;;;7.63;2.80;;;;;;;20.22;76.73;100970.91;5037292;28;20107;-87
2022/07/23 08:33:11;;;;;;;5.15;2.00;;;;;;;20.50;75.01;100969.16;5022433;28;20133;-86
2022/07/23 08:36:02;;;;;;;9.63;2.72;;;;;;;20.42;73.67;100969.84;5027631;28;20140;-86
2022/07/23 08:38:35;;;;;;;4.78;2.33;;;;;;;20.39;73.63;100969.28;5008978;28;20056;-86
2022/07/23 08:41:07;;;;;;;8.77;2.88;;;;;;;20.45;72.97;100966.06;5044352;28;20335;-84
2022/07/23 08:43:37;;;;;;;8.13;3.20;;;;;;;20.54;73.17;100967.06;5002475;28;20093;-85
2022/07/23 08:46:08;;;;;;;9.18;3.08;;;;;;;20.69;71.70;100971.75;5024380;28;20074;-85
2022/07/23 08:48:38;;;;;;;8.75;3.10;;;;;;;20.85;71.88;100984.50;5036064;28;20099;-86
2022/07/23 08:51:10;;;;;;;6.15;2.35;;;;;;;20.93;71.21;100989.09;5045856;28;20529;-86
2022/07/23 08:53:41;;;;;;;7.47;2.47;;;;;;;21.08;70.88;100989.47;5029114;28;20081;-85
2022/07/23 08:56:09;;;;;;;5.57;2.30;;;;;;;21.02;69.40;100985.53;5000674;28;20127;-85
2022/07/23 08:58:43;;;;;;;6.72;2.20;;;;;;;20.83;67.66;100975.78;5024390;28;20069;-86
2022/07/23 09:01:16;;;;;;;8.02;2.63;;;;;;;20.82;68.19;100970.59;5043746;28;20029;-86
2022/07/23 09:03:46;;;;;;;9.45;2.78;;;;;;;20.85;69.14;100971.13;5041461;28;20075;-85
2022/07/23 09:06:13;;;;;;;3.67;1.95;;;;;;;20.78;68.81;100970.03;5017190;28;20096;-85
2022/07/23 09:08:43;;;;;;;4.78;2.30;;;;;;;21.00;68.04;100976.81;5026013;28;20056;-86
2022/07/23 09:11:13;;;;;;;6.55;2.72;;;;;;;20.67;66.67;100980.94;5025882;28;20037;-85
2022/07/23 09:13:52;;;;;;;6.47;2.45;;;;;;;20.90;66.16;100984.06;5057820;28;20112;-84
2022/07/23 09:16:25;;;;;;;9.02;2.65;;;;;;;21.30;65.12;100982.81;5052127;22;20707;-57
2022/07/23 09:19:00;;;;;;;5.63;2.13;;;;;;;21.40;63.50;100976.47;5044647;28;20515;-55
2022/07/23 09:21:34;;;;;;;;;;;;;;;21.34;61.20;100976.22;5049979;28;20055;-55
2022/07/23 09:24:09;;;;;;;7.75;2.53;;;;;;;21.28;62.61;100968.75;5056522;28;19920;-58
2022/07/23 09:26:41;;;;;;;5.05;2.22;;;;;;;21.50;62.07;100979.06;5037295;28;20050;-55
2022/07/23 09:29:13;;;;;;;7.80;2.08;;;;;;;21.51;61.47;100990.63;5052026;28;20056;-56
2022/07/23 09:31:51;;;;;;;7.65;2.00;;;;;;;21.65;61.85;101003.47;5041399;28;20061;-57
2022/07/23 09:34:18;;;;;;;5.32;1.98;;;;;;;21.79;62.05;100996.72;5053852;28;20574;-54
2022/07/23 09:41:10;;;;;;;6.45;2.75;;;;;;;21.06;62.19;101005.66;5036781;28;20043;-57
2022/07/23 09:43:37;;;;;;;6.47;2.80;;;;;;;20.78;62.52;101003.97;5054806;28;20059;-58
2022/07/23 09:46:23;;;;;;;7.65;3.20;;;;;;;20.83;63.27;101007.06;5050807;28;20044;-57
2022/07/23 09:48:56;;;;;;;8.13;2.50;;;;;;;20.93;62.77;100999.81;5052973;28;20550;-56
2022/07/23 09:51:28;;;;;;;10.82;4.13;;;;;;;21.23;62.73;101004.84;5051317;28;20331;-54
2022/07/23 09:53:55;;;;;;;9.02;2.90;;;;;;;21.54;62.25;101003.72;5056937;28;20052;-58
2022/07/23 09:56:23;;;;;;;8.02;2.85;;;;;;;21.84;60.27;100994.44;5050400;28;20053;-58
2022/07/23 09:59:14;;;;;;;8.80;3.33;;;;;;;22.03;59.13;100996.94;5027743;28;20068;-55
2022/07/23 10:01:41;;;;;;;8.98;3.05;;;;;;;21.94;59.62;101005.94;5051475;28;20045;-58
2022/07/23 10:04:10;;;;;;;6.05;3.03;;;;;;;21.95;58.35;101008.44;5056050;28;20058;-58
2022/07/23 10:06:39;;;;;;;5.90;2.70;;;;;;;22.26;57.78;101017.94;5048173;28;20049;-59
2022/07/23 10:09:08;;;;;;;7.30;2.88;;;;;;;22.26;57.08;101028.66;5033482;28;20059;-53
2022/07/23 10:11:35;;;;;;;8.32;2.58;;;;;;;22.37;57.46;101026.53;5044702;28;20551;-56
2022/07/23 10:14:04;;;;;;;4.60;2.85;;;;;;;22.67;55.59;101021.72;5060228;28;20312;-57
2022/07/23 10:16:32;;;;;;;7.63;3.08;;;;;;;22.78;55.39;101017.91;5044111;28;20155;-56
2022/07/23 10:18:59;;;;;;;5.15;2.80;;;;;;;22.87;54.97;101022.31;5048147;28;20417;-56
2022/07/23 10:21:47;;;;;;;8.73;2.75;;;;;;;21.97;56.70;101019.88;5044424;28;20068;-56
2022/07/23 10:24:20;;;;;;;6.55;3.00;;;;;;;22.43;56.19;101017.88;5035023;28;20057;-57
2022/07/23 10:26:55;;;;;;;6.15;2.88;;;;;;;22.59;54.90;101021.66;5048792;28;20087;-57
2022/07/23 10:29:40;;;;;;;5.45;2.60;;;;;;;22.39;54.12;101026.41;5050396;28;20060;-57
2022/07/23 10:32:33;;;;;;;6.75;2.75;;;;;;;22.01;55.14;101033.78;5031439;28;20060;-56
2022/07/23 10:35:22;;;;;;;5.97;3.03;;;;;;;22.04;55.02;101036.16;5034770;28;20064;-53
2022/07/23 10:37:51;;;;;;;5.55;2.60;;;;;;;21.52;56.34;101025.28;5037551;28;20135;-56
2022/07/23 10:40:22;;;;;;;12.70;2.40;;;;;;;21.55;56.68;101030.34;5046995;28;20049;-58
2022/07/23 10:42:51;;;;;;;6.90;2.45;;;;;;;21.68;56.11;101027.28;5055466;28;20035;-57
2022/07/23 10:45:27;;;;;;;6.03;2.20;;;;;;;21.71;55.05;101029.69;5031642;28;20509;-57
2022/07/23 10:47:56;;;;;;;5.25;2.60;;;;;;;21.94;55.31;101028.22;5036530;28;20091;-58
2022/07/23 10:50:30;;;;;;;7.95;3.17;;;;;;;22.11;54.90;101031.88;5051677;28;20103;-53
2022/07/23 10:53:06;;;;;;;5.97;2.50;;;;;;;21.96;55.46;101041.44;5058005;28;20057;-55
2022/07/23 10:55:33;;;;;;;5.18;1.80;;;;;;;22.32;54.96;101042.28;5054327;28;20056;-57
2022/07/23 10:58:02;;;;;;;4.63;2.38;;;;;;;22.56;53.86;101024.66;5051007;28;20547;-56
2022/07/23 11:00:31;;;;;;;3.92;2.20;;;;;;;22.88;53.92;101038.28;5052702;28;20049;-58
2022/07/23 11:03:00;;;;;;;6.28;2.17;;;;;;;23.02;52.97;101036.84;5057805;28;20073;-55
2022/07/23 11:05:42;;;;;;;5.57;2.38;;;;;;;23.51;52.22;101042.41;5053183;28;20141;-55
2022/07/23 11:08:16;;;;;;;7.28;2.20;;;;;;;23.55;51.34;101037.50;5052830;28;20053;-54
2022/07/23 11:10:47;;;;;;;5.55;2.40;;;;;;;23.51;50.92;101028.97;5040549;28;20057;-55
2022/07/23 11:13:38;;;;;;;7.20;2.40;;;;;;;23.72;50.60;101034.72;5054036;28;20057;-55
2022/07/23 11:16:06;;;;;;;10.73;2.47;;;;;;;23.56;50.37;101025.78;5038646;28;20063;-57
2022/07/23 11:18:39;;;;;;;4.80;2.35;;;;;;;23.57;51.24;101027.44;5060222;28;20045;-56
2022/07/23 11:21:28;;;;;;;5.03;2.45;;;;;;;23.74;50.87;101021.13;5053956;28;20071;-56
2022/07/23 11:24:18;;;;;;;3.90;2.10;;;;;;;24.08;50.09;101018.25;5056644;28;20044;-54
2022/07/23 11:26:56;;;;;;;3.67;1.70;;;;;;;24.62;49.96;101026.63;5057935;28;20068;-58
2022/07/23 11:32:03;;;;;;;4.57;2.30;;;;;;;24.47;48.10;101022.97;5052598;28;20076;-57
2022/07/23 11:34:39;;;;;;;8.75;3.20;;;;;;;24.06;48.55;101004.16;5108341;22;20144;-85
2022/07/23 11:37:11;;;;;;;7.70;3.30;;;;;;;23.90;48.30;101014.91;5058729;28;20051;-85
2022/07/23 11:39:38;;;;;;;6.07;2.22;;;;;;;23.95;48.76;101015.25;5057626;28;20063;-86
2022/07/23 11:42:07;;;;;;;7.60;2.65;;;;;;;24.08;48.20;101015.56;5037784;28;20121;-85